Time,TemperatureF,DewpointF,PressureIn,WindDirection,WindDirectionDegrees,WindSpeedMPH,WindSpeedGustMPH,Humidity,HourlyPrecipIn,Conditions,Clouds,dailyrainin,SolarRadiationWatts/m^2,SoftwareType,DateUTC
2013-03-01 00:09:00,64.9,54.0,29.94,WNW,284,0.0,-999.0,68,-99.99,,,0.00,0,weatherlink.com 1.10,2013-03-01 05:09:00,
2013-03-01 00:24:00,65.0,55.0,29.93,WNW,292,1.0,-999.0,69,-99.99,,,0.00,0,weatherlink.com 1.10,2013-03-01 05:24:00,
2013-03-01 00:39:00,65.1,55.0,29.93,WNW,291,0.0,-999.0,69,-99.99,,,0.00,0,weatherlink.com 1.10,2013-03-01 05:39:00,
2013-03-01 00:54:00,65.0,55.0,29.93,West,266,0.0,-999.0,69,-99.99,,,0.00,0,weatherlink.com 1.10,2013-03-01 05:54:00,
2013-03-01 01:09:00,64.9,55.0,29.93,West,266,0.0,-999.0,70,-99.99,,,0.00,0,weatherlink.com 1.10,2013-03-01 06:09:00,
2013-03-01 01:24:00,64.7,55.0,29.93,West,268,0.0,-999.0,70,-99.99,,,0.00,0,weatherlink.com 1.10,2013-03-01 06:24:00,
2013-03-01 01:39:00,64.7,55.0,29.92,West,268,0.0,-999.0,70,-99.99,,,0.00,0,weatherlink.com 1.10,2013-03-01 06:39:00,
2013-03-01 01:54:00,64.6,55.0,29.92,West,268,0.0,-999.0,71,-99.99,,,0.00,0,weatherlink.com 1.10,2013-03-01 06:54:00,
2013-03-01 02:09:00,64.4,55.0,29.92,West,269,0.0,-999.0,71,-99.99,,,0.00,0,weatherlink.com 1.10,2013-03-01 07:09:00,
2013-03-01 02:24:00,64.3,54.0,29.91,WNW,290,0.0,-999.0,70,-99.99,,,0.00,0,weatherlink.com 1.10,2013-03-01 07:24:00,
2013-03-01 02:39:00,64.3,54.0,29.91,WNW,290,0.0,-999.0,70,-99.99,,,0.00,0,weatherlink.com 1.10,2013-03-01 07:39:00,
2013-03-01 02:54:00,64.2,55.0,29.91,WNW,290,0.0,-999.0,71,-99.99,,,0.00,0,weatherlink.com 1.10,2013-03-01 07:54:00,
2013-03-01 03:09:00,64.1,55.0,29.91,WNW,290,0.0,-999.0,72,-99.99,,,0.00,0,weatherlink.com 1.10,2013-03-01 08:09:00,
2013-03-01 03:24:00,63.9,55.0,29.91,WNW,287,1.0,-999.0,72,-99.99,,,0.00,0,weatherlink.com 1.10,2013-03-01 08:24:00,
2013-03-01 03:39:00,63.8,55.0,29.91,WNW,286,1.0,-999.0,72,-99.99,,,0.00,0,weatherlink.com 1.10,2013-03-01 08:39:00,
2013-03-01 03:54:00,63.7,55.0,29.92,West,269,0.0,-999.0,73,-99.99,,,0.00,0,weatherlink.com 1.10,2013-03-01 08:54:00,
2013-03-01 04:09:00,63.6,55.0,29.93,West,269,0.0,-999.0,73,-99.99,,,0.00,0,weatherlink.com 1.10,2013-03-01 09:09:00,
2013-03-01 04:24:00,63.6,55.0,29.93,West,269,0.0,-999.0,74,-99.99,,,0.01,0,weatherlink.com 1.10,2013-03-01 09:24:00,
2013-03-01 04:39:00,63.3,55.0,29.92,West,269,0.0,-999.0,75,-99.99,,,0.01,0,weatherlink.com 1.10,2013-03-01 09:39:00,
2013-03-01 04:54:00,62.9,56.0,29.93,West,269,0.0,-999.0,77,-99.99,,,0.01,0,weatherlink.com 1.10,2013-03-01 09:54:00,
2013-03-01 05:09:00,62.2,56.0,29.92,West,269,1.0,-999.0,80,-99.99,,,0.01,0,weatherlink.com 1.10,2013-03-01 10:09:00,
2013-03-01 05:24:00,61.8,56.0,29.91,West,269,0.0,-999.0,82,-99.99,,,0.01,0,weatherlink.com 1.10,2013-03-01 10:24:00,
2013-03-01 05:39:00,61.7,57.0,29.92,West,269,0.0,-999.0,83,-99.99,,,0.01,0,weatherlink.com 1.10,2013-03-01 10:39:00,
2013-03-01 05:54:00,61.7,57.0,29.92,West,269,0.0,-999.0,84,-99.99,,,0.01,0,weatherlink.com 1.10,2013-03-01 10:54:00,
2013-03-01 06:09:00,61.7,57.0,29.92,West,270,0.0,-999.0,84,-99.99,,,0.01,0,weatherlink.com 1.10,2013-03-01 11:09:00,
2013-03-01 06:24:00,61.7,57.0,29.93,West,269,0.0,-999.0,85,-99.99,,,0.01,0,weatherlink.com 1.10,2013-03-01 11:24:00,
2013-03-01 06:39:00,61.7,57.0,29.93,NW,315,0.0,-999.0,85,-99.99,,,0.01,0,weatherlink.com 1.10,2013-03-01 11:39:00,
2013-03-01 06:54:00,61.4,57.0,29.93,NW,315,0.0,-999.0,84,-99.99,,,0.01,0,weatherlink.com 1.10,2013-03-01 11:54:00,
2013-03-01 07:10:00,61.4,56.0,29.94,NW,314,0.0,-999.0,82,-99.99,,,0.01,16,weatherlink.com 1.10,2013-03-01 12:10:00,
2013-03-01 07:25:00,61.7,56.0,29.95,WNW,297,1.0,-999.0,80,-99.99,,,0.01,37,weatherlink.com 1.10,2013-03-01 12:25:00,
2013-03-01 07:40:00,62.0,55.0,29.95,WNW,294,0.0,-999.0,79,-99.99,,,0.01,60,weatherlink.com 1.10,2013-03-01 12:40:00,
2013-03-01 07:55:00,62.2,56.0,29.96,WNW,296,1.0,-999.0,80,-99.99,,,0.01,63,weatherlink.com 1.10,2013-03-01 12:55:00,
2013-03-01 08:10:00,62.3,56.0,29.96,NNW,341,0.0,-999.0,80,-99.99,,,0.01,63,weatherlink.com 1.10,2013-03-01 13:10:00,
2013-03-01 08:25:00,62.1,55.0,29.96,NNE,19,0.0,-999.0,78,-99.99,,,0.01,156,weatherlink.com 1.10,2013-03-01 13:25:00,
2013-03-01 08:40:00,62.4,55.0,29.96,NW,321,0.0,-999.0,77,-99.99,,,0.01,139,weatherlink.com 1.10,2013-03-01 13:40:00,
2013-03-01 08:55:00,62.8,55.0,29.96,NW,313,1.0,-999.0,75,-99.99,,,0.01,139,weatherlink.com 1.10,2013-03-01 13:55:00,
2013-03-01 09:10:00,62.8,54.0,29.97,WNW,302,1.0,-999.0,74,-99.99,,,0.01,149,weatherlink.com 1.10,2013-03-01 14:10:00,
2013-03-01 09:25:00,63.2,54.0,29.96,WNW,302,0.0,-999.0,73,-99.99,,,0.01,174,weatherlink.com 1.10,2013-03-01 14:25:00,
2013-03-01 09:40:00,63.7,55.0,29.96,WNW,302,0.0,-999.0,73,-99.99,,,0.01,123,weatherlink.com 1.10,2013-03-01 14:40:00,
2013-03-01 09:55:00,63.6,54.0,29.97,West,280,0.0,-999.0,71,-99.99,,,0.01,165,weatherlink.com 1.10,2013-03-01 14:55:00,
2013-03-01 10:10:00,63.2,52.0,29.97,NNW,331,1.0,-999.0,68,-99.99,,,0.01,123,weatherlink.com 1.10,2013-03-01 15:10:00,
2013-03-01 10:25:00,63.7,52.0,29.97,NNE,21,0.0,-999.0,67,-99.99,,,0.01,352,weatherlink.com 1.10,2013-03-01 15:25:00,
2013-03-01 10:40:00,64.3,52.0,29.97,WNW,292,1.0,-999.0,65,-99.99,,,0.01,301,weatherlink.com 1.10,2013-03-01 15:40:00,
2013-03-01 10:55:00,64.5,52.0,29.98,WNW,290,0.0,-999.0,64,-99.99,,,0.01,329,weatherlink.com 1.10,2013-03-01 15:55:00,
2013-03-01 11:10:00,64.9,52.0,29.98,North,355,2.0,-999.0,63,-99.99,,,0.01,462,weatherlink.com 1.10,2013-03-01 16:10:00,
2013-03-01 11:25:00,65.7,53.0,29.98,WNW,285,4.0,-999.0,63,-99.99,,,0.02,457,weatherlink.com 1.10,2013-03-01 16:25:00,
2013-03-01 11:40:00,65.9,51.0,29.97,NNW,344,0.0,-999.0,60,-99.99,,,0.02,230,weatherlink.com 1.10,2013-03-01 16:40:00,
2013-03-01 11:55:00,65.2,51.0,29.97,WNW,296,1.0,-999.0,61,-99.99,,,0.02,186,weatherlink.com 1.10,2013-03-01 16:55:00,
2013-03-01 12:10:00,64.8,52.0,29.96,NW,306,0.0,-999.0,63,-99.99,,,0.02,165,weatherlink.com 1.10,2013-03-01 17:10:00,
2013-03-01 12:25:00,65.0,52.0,29.95,North,9,0.0,-999.0,64,-99.99,,,0.02,165,weatherlink.com 1.10,2013-03-01 17:25:00,
2013-03-01 12:40:00,65.2,53.0,29.95,North,360,0.0,-999.0,64,-99.99,,,0.02,146,weatherlink.com 1.10,2013-03-01 17:40:00,
2013-03-01 12:55:00,65.2,53.0,29.95,WNW,290,1.0,-999.0,64,-99.99,,,0.02,137,weatherlink.com 1.10,2013-03-01 17:55:00,
2013-03-01 13:10:00,64.8,51.0,29.94,West,281,0.0,-999.0,62,-99.99,,,0.02,95,weatherlink.com 1.10,2013-03-01 18:10:00,
2013-03-01 13:25:00,64.6,52.0,29.93,NW,311,0.0,-999.0,63,-99.99,,,0.02,151,weatherlink.com 1.10,2013-03-01 18:25:00,
2013-03-01 13:40:00,65.0,52.0,29.93,NNW,333,0.0,-999.0,64,-99.99,,,0.02,146,weatherlink.com 1.10,2013-03-01 18:40:00,
2013-03-01 13:55:00,64.9,51.0,29.92,West,276,2.0,-999.0,62,-99.99,,,0.02,135,weatherlink.com 1.10,2013-03-01 18:55:00,
2013-03-01 14:10:00,65.2,52.0,29.92,WNW,284,1.0,-999.0,63,-99.99,,,0.02,146,weatherlink.com 1.10,2013-03-01 19:10:00,
2013-03-01 14:25:00,65.0,52.0,29.91,WNW,289,2.0,-999.0,63,-99.99,,,0.02,100,weatherlink.com 1.10,2013-03-01 19:25:00,
2013-03-01 14:40:00,64.8,51.0,29.91,WNW,292,0.0,-999.0,62,-99.99,,,0.02,123,weatherlink.com 1.10,2013-03-01 19:40:00,
2013-03-01 14:55:00,64.7,52.0,29.91,NW,308,0.0,-999.0,64,-99.99,,,0.02,125,weatherlink.com 1.10,2013-03-01 19:55:00,
2013-03-01 15:10:00,65.0,52.0,29.91,WNW,301,0.0,-999.0,64,-99.99,,,0.02,171,weatherlink.com 1.10,2013-03-01 20:10:00,
2013-03-01 15:25:00,64.9,53.0,29.91,WNW,298,0.0,-999.0,65,-99.99,,,0.02,93,weatherlink.com 1.10,2013-03-01 20:25:00,
2013-03-01 15:40:00,64.7,53.0,29.90,WNW,284,0.0,-999.0,65,-99.99,,,0.02,142,weatherlink.com 1.10,2013-03-01 20:40:00,
2013-03-01 15:55:00,64.7,53.0,29.90,WNW,292,0.0,-999.0,66,-99.99,,,0.02,91,weatherlink.com 1.10,2013-03-01 20:55:00,
2013-03-01 16:10:00,64.5,53.0,29.91,WNW,292,0.0,-999.0,66,-99.99,,,0.02,37,weatherlink.com 1.10,2013-03-01 21:10:00,
2013-03-01 16:25:00,64.1,53.0,29.91,WNW,292,1.0,-999.0,68,-99.99,,,0.02,33,weatherlink.com 1.10,2013-03-01 21:25:00,
2013-03-01 16:40:00,63.7,54.0,29.92,West,276,0.0,-999.0,70,-99.99,,,0.02,40,weatherlink.com 1.10,2013-03-01 21:40:00,
2013-03-01 16:55:00,62.9,54.0,29.92,West,261,0.0,-999.0,72,-99.99,,,0.02,77,weatherlink.com 1.10,2013-03-01 21:55:00,
2013-03-01 17:10:00,62.1,54.0,29.92,NNW,333,0.0,-999.0,74,-99.99,,,0.02,30,weatherlink.com 1.10,2013-03-01 22:10:00,
2013-03-01 17:25:00,61.3,53.0,29.92,WNW,300,0.0,-999.0,74,-99.99,,,0.02,28,weatherlink.com 1.10,2013-03-01 22:25:00,
2013-03-01 17:40:00,61.0,53.0,29.93,NW,308,0.0,-999.0,74,-99.99,,,0.02,12,weatherlink.com 1.10,2013-03-01 22:40:00,
2013-03-01 17:55:00,60.7,52.0,29.94,WNW,293,3.0,-999.0,72,-99.99,,,0.02,7,weatherlink.com 1.10,2013-03-01 22:55:00,
2013-03-01 18:10:00,60.9,51.0,29.94,WNW,288,0.0,-999.0,69,-99.99,,,0.02,0,weatherlink.com 1.10,2013-03-01 23:10:00,
2013-03-01 18:25:00,60.9,50.0,29.95,NW,311,0.0,-999.0,67,-99.99,,,0.02,0,weatherlink.com 1.10,2013-03-01 23:25:00,
2013-03-01 18:40:00,61.0,49.0,29.95,NW,323,0.0,-999.0,65,-99.99,,,0.02,0,weatherlink.com 1.10,2013-03-01 23:40:00,
2013-03-01 18:55:00,61.1,49.0,29.95,North,355,0.0,-999.0,65,-99.99,,,0.02,0,weatherlink.com 1.10,2013-03-01 23:55:00,
2013-03-01 19:10:00,61.0,49.0,29.96,WNW,286,0.0,-999.0,65,-99.99,,,0.02,0,weatherlink.com 1.10,2013-03-02 00:10:00,
2013-03-01 19:25:00,61.1,49.0,29.96,NW,310,0.0,-999.0,65,-99.99,,,0.02,0,weatherlink.com 1.10,2013-03-02 00:25:00,
2013-03-01 19:40:00,61.2,49.0,29.96,NNW,330,2.0,-999.0,65,-99.99,,,0.02,0,weatherlink.com 1.10,2013-03-02 00:40:00,
2013-03-01 19:55:00,61.0,50.0,29.96,WNW,301,0.0,-999.0,67,-99.99,,,0.02,0,weatherlink.com 1.10,2013-03-02 00:55:00,
2013-03-01 20:10:00,60.8,50.0,29.97,WNW,300,1.0,-999.0,68,-99.99,,,0.02,0,weatherlink.com 1.10,2013-03-02 01:10:00,
2013-03-01 20:25:00,60.8,50.0,29.97,WNW,302,0.0,-999.0,68,-99.99,,,0.02,0,weatherlink.com 1.10,2013-03-02 01:25:00,
2013-03-01 20:40:00,60.7,50.0,29.97,WNW,299,0.0,-999.0,68,-99.99,,,0.02,0,weatherlink.com 1.10,2013-03-02 01:40:00,
2013-03-01 20:56:00,60.5,50.0,29.98,WNW,299,0.0,-999.0,68,-99.99,,,0.02,0,weatherlink.com 1.10,2013-03-02 01:56:00,
2013-03-01 21:11:00,60.2,49.0,29.98,WNW,296,0.0,-999.0,67,-99.99,,,0.02,0,weatherlink.com 1.10,2013-03-02 02:11:00,
2013-03-01 21:26:00,60.2,50.0,29.98,WNW,302,0.0,-999.0,68,-99.99,,,0.02,0,weatherlink.com 1.10,2013-03-02 02:26:00,
2013-03-01 21:41:00,60.0,50.0,29.98,NNW,344,0.0,-999.0,70,-99.99,,,0.02,0,weatherlink.com 1.10,2013-03-02 02:41:00,
2013-03-01 21:56:00,59.6,50.0,29.98,WNW,292,0.0,-999.0,70,-99.99,,,0.02,0,weatherlink.com 1.10,2013-03-02 02:56:00,
2013-03-01 22:11:00,59.5,49.0,29.99,NNW,333,0.0,-999.0,69,-99.99,,,0.02,0,weatherlink.com 1.10,2013-03-02 03:11:00,
2013-03-01 22:26:00,59.5,49.0,29.98,WNW,286,0.0,-999.0,68,-99.99,,,0.02,0,weatherlink.com 1.10,2013-03-02 03:26:00,
2013-03-01 22:41:00,59.5,48.0,29.98,WNW,283,0.0,-999.0,66,-99.99,,,0.02,0,weatherlink.com 1.10,2013-03-02 03:41:00,
2013-03-01 22:56:00,59.4,48.0,29.98,WNW,283,0.0,-999.0,65,-99.99,,,0.02,0,weatherlink.com 1.10,2013-03-02 03:56:00,
2013-03-01 23:11:00,59.2,48.0,29.98,WNW,300,0.0,-999.0,66,-99.99,,,0.02,0,weatherlink.com 1.10,2013-03-02 04:11:00,
2013-03-01 23:26:00,59.1,48.0,29.98,WNW,296,2.0,-999.0,66,-99.99,,,0.02,0,weatherlink.com 1.10,2013-03-02 04:26:00,
2013-03-01 23:41:00,59.0,48.0,29.97,WNW,301,4.0,-999.0,66,-99.99,,,0.02,0,weatherlink.com 1.10,2013-03-02 04:41:00,
2013-03-01 23:56:00,58.9,48.0,29.97,WNW,294,0.0,-999.0,67,-99.99,,,0.00,0,weatherlink.com 1.10,2013-03-02 04:56:00,